Time;durP1;ratioP1;P1;durP2;ratioP2;P2;SDS_P1;SDS_P2;PMS_P1;PMS_P2;Temp;Humidity;BMP_temperature;BMP_pressure;BME280_temperature;BME280_humidity;BME280_pressure;Samples;Min_cycle;Max_cycle;Signal;HPM_P1;HPM_P2
2023/01/18 00:01:35;;;;;;;6.25;3.35;;;358.60;2329.60;;;;;;4864162;29;20029;-82
2023/01/18 00:04:01;;;;;;;7.97;3.33;;;358.60;2329.60;;;;;;4863914;29;20040;-84
2023/01/18 00:06:27;;;;;;;5.45;2.60;;;358.60;2329.60;;;;;;4863879;29;20033;-81
2023/01/18 00:08:54;;;;;;;6.55;3.78;;;358.60;2329.60;;;;;;4863735;29;20576;-83
2023/01/18 00:11:20;;;;;;;9.07;3.33;;;358.50;2329.60;;;;;;4864424;29;20033;-86
2023/01/18 00:13:46;;;;;;;10.13;4.30;;;358.90;2329.60;;;;;;4875711;29;20536;-83
2023/01/18 00:16:20;;;;;;;5.78;3.00;;;358.40;2329.60;;;;;;4898990;29;20040;-83
2023/01/18 00:18:54;;;;;;;7.30;3.85;;;358.50;2329.60;;;;;;4897519;29;20097;-82
2023/01/18 00:21:20;;;;;;;6.22;3.75;;;358.40;2329.60;;;;;;4881779;29;20032;-81
2023/01/18 00:23:46;;;;;;;7.10;3.03;;;358.40;2329.60;;;;;;4881200;29;20056;-81
2023/01/18 00:26:12;;;;;;;6.20;3.22;;;358.40;2329.60;;;;;;4881643;29;20028;-81
2023/01/18 00:28:39;;;;;;;8.57;4.35;;;358.40;2329.60;;;;;;4881530;29;20060;-79
2023/01/18 00:31:12;;;;;;;5.35;2.83;;;358.40;2329.60;;;;;;4898652;29;20091;-82
2023/01/18 00:33:40;;;;;;;11.45;5.47;;;358.40;2329.60;;;;;;4881513;29;20032;-80
2023/01/18 00:36:06;;;;;;;7.03;3.42;;;333.70;2329.60;;;;;;4887768;29;20065;-83
2023/01/18 00:38:32;;;;;;;6.13;3.75;;;358.40;2329.60;;;;;;4895626;29;20052;-82
2023/01/18 00:40:57;;;;;;;5.55;3.45;;;358.40;2329.60;;;;;;4893464;29;20050;-80
2023/01/18 00:43:38;;;;;;;7.82;4.53;;;358.40;2329.60;;;;;;4893658;29;20184;-81
2023/01/18 00:46:05;;;;;;;5.85;2.80;;;333.70;2329.60;;;;;;4901334;29;20040;-82
2023/01/18 00:48:31;;;;;;;7.40;4.35;;;333.70;2329.60;;;;;;4903111;29;20024;-80
2023/01/18 00:50:57;;;;;;;7.00;3.45;;;358.40;2329.60;;;;;;4920150;29;20035;-82
2023/01/18 00:53:22;;;;;;;5.47;2.97;;;358.40;2329.60;;;;;;4903708;29;20032;-80
2023/01/18 00:55:48;;;;;;;7.18;3.55;;;358.40;2329.60;;;;;;4903822;29;20397;-83
2023/01/18 00:58:14;;;;;;;10.25;5.40;;;358.40;2329.60;;;;;;4920119;29;20080;-81
2023/01/18 01:00:40;;;;;;;8.70;3.20;;;358.40;2329.60;;;;;;4903702;29;20076;-82
2023/01/18 01:03:07;;;;;;;8.75;3.75;;;333.70;2329.60;;;;;;4903753;29;20036;-83
2023/01/18 01:08:17;;;;;;;6.22;2.95;;;358.40;2329.60;;;;;;4920521;29;20455;-83
2023/01/18 01:10:45;;;;;;;5.47;2.80;;;333.70;2329.60;;;;;;4903359;29;20056;-82
2023/01/18 01:26:53;;;;;;;6.57;3.00;;;333.70;2329.60;;;;;;4900855;29;20124;-81
2023/01/18 01:29:19;;;;;;;7.22;3.85;;;333.70;2329.60;;;;;;4887558;29;20072;-78
2023/01/18 01:31:45;;;;;;;6.32;2.50;;;333.70;2329.60;;;;;;4892225;29;20033;-77
2023/01/18 01:34:11;;;;;;;6.15;3.30;;;333.60;2329.60;;;;;;4892642;29;20032;-85
2023/01/18 01:36:36;;;;;;;6.38;2.60;;;333.70;2329.60;;;;;;4884404;29;20035;-83
2023/01/18 01:39:02;;;;;;;7.50;3.78;;;333.70;2329.60;;;;;;4884387;29;20119;-80
2023/01/18 01:41:31;;;;;;;4.40;2.53;;;333.70;2329.60;;;;;;4884514;29;20032;-83
2023/01/18 01:44:03;;;;;;;4.05;2.10;;;358.40;2329.60;;;;;;4884340;29;20036;-82
2023/01/18 01:46:36;;;;;;;7.47;3.40;;;358.40;2329.60;;;;;;4883737;29;20039;-83
2023/01/18 01:49:25;;;;;;;8.32;2.38;;;333.70;2329.60;;;;;;4884079;29;20033;-83
2023/01/18 01:52:02;;;;;;;5.15;2.47;;;333.70;2329.60;;;;;;4901028;29;20033;-81
2023/01/18 01:54:43;;;;;;;5.05;2.38;;;358.40;2329.60;;;;;;4883777;29;20037;-84
2023/01/18 01:57:14;;;;;;;12.40;5.90;;;333.70;2329.60;;;;;;4900745;29;20079;-82
2023/01/18 01:59:46;;;;;;;7.82;3.95;;;333.70;2329.60;;;;;;4883764;29;20033;-83
2023/01/18 02:02:12;;;;;;;6.80;3.20;;;333.70;2329.60;;;;;;4883699;29;20029;-81
2023/01/18 02:04:42;;;;;;;8.02;4.70;;;333.60;2329.60;;;;;;4900064;29;20043;-80
2023/01/18 02:07:09;;;;;;;6.47;3.10;;;333.60;2329.60;;;;;;4883575;29;20485;-82
2023/01/18 02:09:35;;;;;;;5.82;2.50;;;333.60;2329.60;;;;;;4883425;29;20033;-82
2023/01/18 02:12:01;;;;;;;6.45;3.20;;;333.60;2329.60;;;;;;4899739;29;20036;-82
2023/01/18 02:14:28;;;;;;;2.83;1.50;;;333.70;2329.60;;;;;;4883491;29;20036;-81
2023/01/18 02:16:59;;;;;;;3.22;1.52;;;333.70;2329.60;;;;;;4883424;29;20040;-83
2023/01/18 02:20:09;;;;;;;3.72;1.80;;;333.70;2329.60;;;;;;4883090;29;20037;-82
2023/01/18 02:22:46;;;;;;;4.55;2.20;;;333.70;2329.60;;;;;;4883481;29;20123;-82
2023/01/18 02:25:33;;;;;;;5.10;2.10;;;358.40;2329.60;;;;;;4883023;29;20052;-81
2023/01/18 02:28:21;;;;;;;4.40;2.33;;;333.70;2329.60;;;;;;4883431;29;20024;-81
2023/01/18 02:30:52;;;;;;;4.82;1.98;;;333.70;2329.60;;;;;;4883341;29;20480;-80
2023/01/18 02:33:33;;;;;;;4.85;2.00;;;333.60;2329.60;;;;;;4883041;29;20362;-81
2023/01/18 02:36:04;;;;;;;5.30;2.40;;;333.50;2329.60;;;;;;4882255;29;20084;-81
2023/01/18 02:38:36;;;;;;;5.78;2.65;;;333.50;2329.60;;;;;;4898953;29;20077;-81
2023/01/18 02:46:29;;;;;;;4.10;1.95;;;333.40;2329.60;;;;;;4882071;29;20551;-81
2023/01/18 02:47:05;;;;;;;6.03;2.58;;;333.30;2329.60;;;;;;4899186;29;20040;-82
2023/01/18 02:49:31;;;;;;;5.35;3.03;;;333.30;2329.60;;;;;;4882955;29;20087;-81
2023/01/18 02:52:07;;;;;;;9.38;5.20;;;333.40;2329.60;;;;;;4899598;29;20445;-83
2023/01/18 02:54:37;;;;;;;8.05;3.70;;;333.40;2329.60;;;;;;4882782;29;20044;-82
2023/01/18 02:57:11;;;;;;;3.97;2.17;;;333.40;2329.60;;;;;;4882094;29;20036;-82
2023/01/18 02:59:46;;;;;;;3.08;1.45;;;333.50;2329.60;;;;;;4882637;29;20137;-82
2023/01/18 03:02:15;;;;;;;3.80;1.83;;;333.50;2329.60;;;;;;4882501;29;20063;-83
2023/01/18 03:05:02;;;;;;;4.45;1.83;;;333.40;2329.60;;;;;;4882680;29;20106;-82
2023/01/18 03:07:51;;;;;;;5.45;2.22;;;333.40;2329.60;;;;;;4899596;29;20080;-82
2023/01/18 03:10:17;;;;;;;7.75;2.85;;;333.40;2329.60;;;;;;4899455;29;20061;-81
2023/01/18 03:12:48;;;;;;;6.95;2.33;;;333.30;2329.60;;;;;;4882481;29;20036;-83
2023/01/18 03:15:29;;;;;;;3.42;1.77;;;333.30;2329.60;;;;;;4882439;29;20056;-82
2023/01/18 03:18:21;;;;;;;2.75;1.38;;;333.70;2329.60;;;;;;4899319;29;20036;-84
2023/01/18 03:20:54;;;;;;;6.07;2.23;;;333.40;2329.60;;;;;;4897196;29;20032;-84
2023/01/18 03:23:38;;;;;;;4.40;2.33;;;333.40;2329.60;;;;;;4899738;29;20033;-82
2023/01/18 03:26:17;;;;;;;4.50;2.05;;;333.40;2329.60;;;;;;4901014;29;20028;-81
2023/01/18 03:35:02;;;;;;;6.05;3.78;;;333.40;2329.60;;;;;;4912523;29;20093;-83
2023/01/18 03:37:38;;;;;;;6.55;1.98;;;333.40;2329.60;;;;;;4900849;29;20036;-81
2023/01/18 03:40:15;;;;;;;4.40;1.70;;;333.40;2329.60;;;;;;4918267;29;20207;-83
2023/01/18 03:43:13;;;;;;;5.57;2.40;;;333.50;2329.60;;;;;;4917492;29;20400;-82
2023/01/18 03:45:43;;;;;;;4.25;1.92;;;333.50;2329.60;;;;;;4912260;29;20040;-83
2023/01/18 03:48:09;;;;;;;5.10;2.30;;;333.50;2329.60;;;;;;4900726;29;20064;-79
2023/01/18 03:50:47;;;;;;;4.88;2.00;;;333.40;2329.60;;;;;;4900789;29;20035;-83
2023/01/18 03:53:19;;;;;;;4.75;2.08;;;333.40;2329.60;;;;;;4900900;29;20032;-81
2023/01/18 03:56:01;;;;;;;4.13;1.75;;;333.40;2329.60;;;;;;4917422;29;20028;-81
2023/01/18 03:58:35;;;;;;;6.97;1.80;;;333.50;2329.60;;;;;;4900688;29;20032;-82
2023/01/18 04:01:02;;;;;;;4.68;1.80;;;333.50;2329.60;;;;;;4900788;29;20024;-82
2023/01/18 04:03:33;;;;;;;3.88;1.70;;;333.60;2329.60;;;;;;4900583;29;20209;-81
2023/01/18 04:06:01;;;;;;;4.57;1.80;;;333.50;2329.60;;;;;;4900732;29;20088;-80
2023/01/18 04:08:27;;;;;;;5.70;2.50;;;333.60;2329.60;;;;;;4901618;29;20424;-81
2023/01/18 04:10:53;;;;;;;4.70;2.10;;;333.50;2329.60;;;;;;4904250;29;20067;-82
2023/01/18 04:13:18;;;;;;;8.10;2.45;;;333.50;2329.60;;;;;;4892835;29;20060;-84
2023/01/18 04:15:44;;;;;;;5.10;2.08;;;333.50;2329.60;;;;;;4867054;29;20041;-82
2023/01/18 04:18:10;;;;;;;6.68;1.92;;;333.60;2329.60;;;;;;4865397;29;20134;-82
2023/01/18 04:20:36;;;;;;;7.43;3.65;;;333.60;2329.60;;;;;;4865949;29;20029;-79
2023/01/18 04:23:01;;;;;;;8.45;3.17;;;333.70;2329.60;;;;;;4883167;29;20033;-81
2023/01/18 04:25:27;;;;;;;9.20;3.20;;;333.60;2329.60;;;;;;4863745;29;20053;-82
2023/01/18 04:27:53;;;;;;;9.57;4.22;;;333.60;2329.60;;;;;;4848486;29;20045;-79
2023/01/18 04:30:19;;;;;;;7.88;3.60;;;333.60;2329.60;;;;;;4864555;29;20034;-81
2023/01/18 04:32:45;;;;;;;8.93;4.38;;;333.60;2329.60;;;;;;4848334;29;20363;-81
2023/01/18 04:35:11;;;;;;;15.27;6.60;;;333.50;2329.60;;;;;;4847665;29;20029;-82
2023/01/18 04:37:37;;;;;;;12.18;3.65;;;333.50;2329.60;;;;;;4863479;29;20035;-82
2023/01/18 04:40:06;;;;;;;6.07;2.65;;;333.50;2329.60;;;;;;4863850;29;20030;-82
2023/01/18 04:42:32;;;;;;;6.32;2.22;;;333.60;2329.60;;;;;;4848087;29;20480;-80
2023/01/18 04:44:58;;;;;;;9.70;2.65;;;333.50;2329.60;;;;;;4874972;29;20088;-82
2023/01/18 04:47:27;;;;;;;13.55;6.97;;;333.50;2329.60;;;;;;4883279;29;20116;-82
2023/01/18 04:49:54;;;;;;;19.80;11.02;;;333.60;2329.60;;;;;;4864780;29;20040;-83
2023/01/18 04:52:20;;;;;;;16.50;7.75;;;333.50;2329.60;;;;;;4865688;29;20082;-82
2023/01/18 04:54:46;;;;;;;13.95;6.68;;;333.50;2329.60;;;;;;4866336;29;20060;-83
2023/01/18 04:57:11;;;;;;;9.10;4.15;;;333.50;2329.60;;;;;;4883273;29;20025;-83
2023/01/18 04:59:38;;;;;;;10.95;4.97;;;333.50;2329.60;;;;;;4866150;29;20085;-82
2023/01/18 05:02:03;;;;;;;8.88;4.00;;;333.50;2329.60;;;;;;4866089;29;20120;-82
2023/01/18 05:04:29;;;;;;;5.68;2.65;;;333.40;2329.60;;;;;;4866232;29;20120;-80
2023/01/18 05:06:55;;;;;;;7.15;2.75;;;333.30;2329.60;;;;;;4866050;29;20055;-83
2023/01/18 05:09:21;;;;;;;4.65;2.50;;;333.30;2329.60;;;;;;4866177;29;20385;-80
2023/01/18 05:11:46;;;;;;;6.18;3.08;;;333.30;2329.60;;;;;;4866193;29;20029;-82
2023/01/18 05:14:12;;;;;;;7.30;2.50;;;333.30;2329.60;;;;;;4865988;29;20033;-83
2023/01/18 05:16:38;;;;;;;6.55;3.33;;;333.30;2329.60;;;;;;4866110;29;20446;-82
2023/01/18 05:19:04;;;;;;;8.30;3.78;;;333.20;2329.60;;;;;;4882468;29;20187;-79
2023/01/18 05:21:30;;;;;;;7.43;3.67;;;;;;;;;;4881971;29;20029;-83
2023/01/18 05:23:55;;;;;;;6.63;3.47;;;333.30;2329.60;;;;;;4865604;29;20458;-82
2023/01/18 05:26:22;;;;;;;8.93;3.90;;;333.10;2329.60;;;;;;4865684;29;20068;-81
2023/01/18 05:28:54;;;;;;;12.57;4.95;;;333.10;2329.60;;;;;;4865781;29;20037;-82
2023/01/18 05:31:21;;;;;;;10.93;5.20;;;;;;;;;;4882916;29;20153;-83
2023/01/18 05:33:47;;;;;;;12.55;5.03;;;;;;;;;;4865415;29;20033;-81
2023/01/18 05:36:13;;;;;;;8.07;4.07;;;;;;;;;;4865611;29;20025;-80
2023/01/18 05:38:39;;;;;;;5.88;2.92;;;;;;;;;;4865483;29;20123;-82
2023/01/18 05:41:05;;;;;;;8.77;3.50;;;;;;;;;;4882227;29;20029;-83
2023/01/18 05:43:31;;;;;;;8.35;3.63;;;;;;;;;;4865619;29;20025;-80
2023/01/18 05:45:58;;;;;;;8.70;4.15;;;;;;;;;;4865820;29;20029;-81
2023/01/18 05:48:24;;;;;;;7.70;4.22;;;;;;;;;;4865216;29;20077;-80
2023/01/18 05:50:51;;;;;;;10.57;4.78;;;;;;;;;;4885893;29;20055;-79
2023/01/18 05:53:18;;;;;;;9.20;3.80;;;;;;;;;;4870910;29;20057;-76
2023/01/18 05:55:44;;;;;;;7.65;4.47;;;;;;;;;;4884470;29;20493;-82
2023/01/18 05:58:10;;;;;;;7.45;3.90;;;;;;;;;;4865224;29;20474;-82
2023/01/18 06:00:36;;;;;;;9.35;3.70;;;;;;;;;;4865390;29;20422;-84
2023/01/18 06:03:02;;;;;;;9.48;4.55;;;;;;;;;;4865138;29;20029;-82
2023/01/18 06:05:28;;;;;;;9.10;4.90;;;;;;;;;;4865271;29;20389;-83
2023/01/18 06:07:54;;;;;;;10.65;6.20;;;;;;;;;;4865209;29;20089;-83
2023/01/18 06:10:20;;;;;;;8.35;4.78;;;;;;;;;;4864634;29;20107;-84
2023/01/18 06:12:47;;;;;;;11.23;5.60;;;;;;;;;;4863743;29;20037;-83
2023/01/18 06:15:14;;;;;;;12.52;7.30;;;;;;;;;;4864377;29;20112;-82
2023/01/18 06:17:40;;;;;;;20.25;8.98;;;;;;;;;;4864275;29;20112;-81
2023/01/18 06:20:07;;;;;;;29.98;17.23;;;;;;;;;;4863523;29;20021;-83
2023/01/18 06:22:33;;;;;;;22.98;12.13;;;;;;;;;;4864479;29;20442;-82
2023/01/18 06:24:59;;;;;;;23.38;12.70;;;;;;;;;;4895976;29;20049;-79
2023/01/18 06:27:25;;;;;;;28.70;15.15;;;;;;;;;;4883349;29;20029;-82
2023/01/18 06:29:51;;;;;;;21.50;11.73;;;;;;;;;;4899455;29;20028;-84
2023/01/18 06:32:17;;;;;;;12.25;7.30;;;;;;;;;;4882274;29;20028;-83
2023/01/18 06:34:43;;;;;;;11.57;6.18;;;;;;;;;;4883207;29;20468;-83
2023/01/18 06:37:09;;;;;;;11.38;4.65;;;;;;;;;;4882969;29;20373;-82
2023/01/18 06:39:35;;;;;;;12.52;5.38;;;;;;;;;;4883154;29;20036;-81
2023/01/18 06:42:01;;;;;;;15.57;7.05;;;;;;;;;;4883029;29;20024;-82
2023/01/18 06:44:27;;;;;;;13.60;8.02;;;;;;;;;;4882759;29;20039;-81
2023/01/18 06:46:53;;;;;;;12.50;6.43;;;;;;;;;;4882943;29;20480;-81
2023/01/18 06:49:19;;;;;;;12.40;6.00;;;;;;;;;;4899509;29;20031;-82
2023/01/18 06:51:46;;;;;;;9.43;4.80;;;;;;;;;;4899256;29;20020;-83
2023/01/18 06:54:14;;;;;;;11.02;5.07;;;;;;;;;;4883030;29;20032;-83
2023/01/18 06:56:40;;;;;;;9.20;6.20;;;;;;;;;;4882932;29;20473;-80
2023/01/18 06:59:06;;;;;;;10.75;4.63;;;;;;;;;;4882620;29;20029;-82
2023/01/18 07:01:32;;;;;;;7.82;4.35;;;;;;;;;;4882784;29;20035;-82
2023/01/18 07:03:58;;;;;;;12.85;5.32;;;;;;;;;;4882593;29;20056;-84
2023/01/18 07:06:24;;;;;;;12.32;6.10;;;;;;;;;;4882250;29;20025;-84
2023/01/18 07:08:51;;;;;;;11.27;5.70;;;;;;;;;;4899092;29;20032;-84
2023/01/18 07:11:17;;;;;;;18.40;8.65;;;;;;;;;;4899090;29;20025;-81
2023/01/18 07:13:43;;;;;;;15.45;7.72;;;;;;;;;;4882590;29;20063;-83
2023/01/18 07:16:17;;;;;;;11.75;4.55;;;;;;;;;;4882445;29;20028;-81
2023/01/18 07:18:45;;;;;;;13.60;5.20;;;;;;;;;;4882444;29;20024;-82
2023/01/18 07:21:12;;;;;;;6.45;3.70;;;;;;;;;;4882472;29;20036;-82
2023/01/18 07:23:38;;;;;;;19.58;5.38;;;;;;;;;;4882007;29;20139;-85
2023/01/18 07:26:06;;;;;;;10.88;6.22;;;;;;;;;;4882039;29;20102;-79
2023/01/18 07:28:33;;;;;;;16.05;7.50;;;;;;;;;;4882254;29;20177;-81
2023/01/18 07:30:59;;;;;;;8.18;4.47;;;;;;;;;;4899216;29;20076;-81
2023/01/18 07:33:26;;;;;;;13.40;6.80;;;;;;;;;;4881971;29;20417;-81
2023/01/18 07:35:52;;;;;;;11.45;6.00;;;;;;;;;;4900159;29;20055;-83
2023/01/18 07:38:19;;;;;;;9.40;5.60;;;;;;;;;;4887322;29;20490;-81
2023/01/18 07:40:46;;;;;;;8.13;3.78;;;359.00;2329.60;;;;;;4900781;29;20025;-82
2023/01/18 07:43:14;;;;;;;11.75;5.03;;;358.90;2329.60;;;;;;4901113;29;20130;-82
2023/01/18 07:45:39;;;;;;;9.52;4.05;;;358.90;2329.60;;;;;;4901034;29;20047;-82
2023/01/18 07:48:05;;;;;;;13.70;7.47;;;;;;;;;;4900661;29;20122;-80
2023/01/18 07:50:34;;;;;;;16.10;10.10;;;359.30;2329.60;;;;;;4917300;29;20078;-83
2023/01/18 07:53:03;;;;;;;32.58;18.20;;;359.30;2329.60;;;;;;4900942;29;20126;-80
2023/01/18 07:55:31;;;;;;;27.25;14.57;;;359.30;2329.60;;;;;;4900889;29;20028;-82
2023/01/18 07:57:58;;;;;;;22.20;12.65;;;;;;;;;;4901044;29;20028;-82
2023/01/18 08:00:24;;;;;;;18.58;9.50;;;;;;;;;;4900428;29;20024;-84
2023/01/18 08:02:51;;;;;;;7.35;4.43;;;384.70;2329.60;;;;;;4917835;29;20043;-83
2023/01/18 08:05:22;;;;;;;8.27;2.90;;;384.70;2329.60;;;;;;4900765;29;20032;-83
2023/01/18 08:07:48;;;;;;;7.30;3.20;;;;;;;;;;4900444;29;20036;-83
2023/01/18 08:10:15;;;;;;;8.40;3.92;;;;;;;;;;4900569;29;20028;-81
2023/01/18 08:12:40;;;;;;;19.25;2.70;;;410.30;2329.60;;;;;;4900797;29;20083;-81
2023/01/18 08:15:07;;;;;;;16.02;4.78;;;410.30;2304.00;;;;;;4917451;29;20032;-84
2023/01/18 08:17:34;;;;;;;12.88;5.53;;;410.40;2252.80;;;;;;4900746;29;20083;-83
2023/01/18 08:20:00;;;;;;;8.38;3.90;;;410.40;2252.80;;;;;;4900833;29;20032;-84
2023/01/18 08:22:25;;;;;;;10.80;5.07;;;410.50;2252.80;;;;;;4900454;29;20035;-83
2023/01/18 08:24:51;;;;;;;9.38;4.18;;;410.40;2329.60;;;;;;4900219;29;20052;-84
2023/01/18 08:27:17;;;;;;;9.20;4.60;;;410.30;2355.20;;;;;;4900583;29;20024;-85
2023/01/18 08:29:44;;;;;;;9.52;3.72;;;410.30;2355.20;;;;;;4917269;29;20024;-86
2023/01/18 08:32:10;;;;;;;11.05;5.75;;;410.20;2355.20;;;;;;4900690;29;20054;-82
2023/01/18 08:34:37;;;;;;;9.60;6.25;;;410.00;2355.20;;;;;;4900808;29;20480;-83
2023/01/18 08:37:03;;;;;;;10.00;5.50;;;409.80;2355.20;;;;;;4900115;29;20033;-80
2023/01/18 08:39:28;;;;;;;9.15;5.40;;;409.70;2355.20;;;;;;4900296;29;20115;-82
2023/01/18 08:41:54;;;;;;;5.22;2.30;;;409.70;2355.20;;;;;;4917439;29;20070;-81
2023/01/18 08:44:20;;;;;;;4.78;2.63;;;409.80;2355.20;;;;;;4890978;29;20043;-81
2023/01/18 08:46:45;;;;;;;5.45;2.63;;;409.80;2355.20;;;;;;4881438;29;20358;-81
2023/01/18 08:49:11;;;;;;;7.90;3.60;;;409.80;2355.20;;;;;;4896795;29;20068;-79
2023/01/18 08:51:37;;;;;;;5.40;2.90;;;409.90;2355.20;;;;;;4881343;29;20492;-82
2023/01/18 08:54:05;;;;;;;6.82;3.90;;;409.90;2355.20;;;;;;4881521;29;20037;-86
2023/01/18 08:56:31;;;;;;;6.30;3.20;;;409.90;2355.20;;;;;;4900972;29;20029;-82
2023/01/18 08:58:57;;;;;;;9.07;3.58;;;410.00;2355.20;;;;;;4884975;29;20033;-83
2023/01/18 09:01:23;;;;;;;6.30;2.78;;;410.10;2355.20;;;;;;4887403;29;20461;-82
2023/01/18 09:03:49;;;;;;;7.97;2.90;;;410.20;2355.20;;;;;;4886933;29;20037;-83
2023/01/18 09:06:15;;;;;;;10.63;4.22;;;410.30;2355.20;;;;;;4885068;29;20032;-85
2023/01/18 09:08:41;;;;;;;5.28;2.90;;;410.20;2355.20;;;;;;4887302;29;20035;-87
2023/01/18 09:11:09;;;;;;;5.90;2.40;;;410.30;2355.20;;;;;;4892182;29;20060;-84
2023/01/18 09:13:35;;;;;;;7.85;3.28;;;435.30;2355.20;;;;;;4906202;29;20190;-84
2023/01/18 09:16:08;;;;;;;20.15;3.78;;;410.40;2355.20;;;;;;4897121;29;20119;-85
2023/01/18 09:18:35;;;;;;;8.25;3.78;;;410.50;2278.40;;;;;;4903428;29;20048;-83
2023/01/18 09:21:06;;;;;;;6.15;2.05;;;435.40;2278.40;;;;;;4903387;29;20047;-85
2023/01/18 09:23:33;;;;;;;9.38;3.78;;;435.50;2252.80;;;;;;4919950;29;20111;-85
2023/01/18 09:26:15;;;;;;;8.18;4.20;;;435.60;2252.80;;;;;;4903073;29;20024;-84
2023/01/18 09:28:47;;;;;;;9.60;3.72;;;435.50;2252.80;;;;;;4919755;29;20437;-87
2023/01/18 09:31:13;;;;;;;9.95;3.10;;;435.60;2227.20;;;;;;4909895;29;20073;-84
2023/01/18 09:33:41;;;;;;;6.57;2.70;;;435.60;2201.60;;;;;;4884777;29;20032;-86
2023/01/18 09:36:09;;;;;;;8.32;4.03;;;435.80;2201.60;;;;;;4884466;29;20025;-84
2023/01/18 09:38:35;;;;;;;9.88;3.40;;;435.90;2150.40;;;;;;4895833;29;20044;-85
2023/01/18 09:41:04;;;;;;;19.15;3.38;;;435.90;2150.40;;;;;;4920107;29;20032;-85
2023/01/18 09:43:38;;;;;;;9.50;3.47;;;435.80;2176.00;;;;;;4903651;29;20038;-88
2023/01/18 09:46:04;;;;;;;18.90;2.83;;;435.70;2201.60;;;;;;4903356;29;20043;-84
2023/01/18 09:48:30;;;;;;;12.82;4.43;;;435.60;2201.60;;;;;;4903584;29;20032;-84
2023/01/18 09:51:01;;;;;;;9.80;3.20;;;435.60;2201.60;;;;;;4920892;29;20156;-83
2023/01/18 09:53:35;;;;;;;8.52;3.90;;;435.50;2201.60;;;;;;4903538;29;20036;-85
2023/01/18 09:56:39;;;;;;;8.98;2.65;;;435.50;2227.20;;;;;;4903817;29;20028;-87
2023/01/18 09:59:32;;;;;;;6.57;2.50;;;435.50;2201.60;;;;;;4902382;29;20044;-91
2023/01/18 10:02:09;;;;;;;11.68;3.05;;;435.40;2201.60;;;;;;4894039;29;20123;-85
2023/01/18 10:04:41;;;;;;;10.10;4.25;;;435.30;2227.20;;;;;;4883307;29;20396;-85
2023/01/18 10:07:14;;;;;;;7.97;3.17;;;435.30;2252.80;;;;;;4885014;29;20099;-83
2023/01/18 10:09:45;;;;;;;7.15;2.10;;;435.20;2304.00;;;;;;4887040;29;20439;-85
2023/01/18 10:12:23;;;;;;;8.93;2.50;;;410.40;2329.60;;;;;;4887602;29;20123;-84
2023/01/18 10:15:24;;;;;;;7.15;2.20;;;410.30;2355.20;;;;;;4893838;29;20040;-79
2023/01/18 10:17:55;;;;;;;11.15;4.15;;;410.30;2355.20;;;;;;4886354;29;20040;-81
2023/01/18 10:20:33;;;;;;;7.13;2.90;;;410.30;2355.20;;;;;;4887739;29;20036;-86
2023/01/18 10:23:19;;;;;;;7.97;2.90;;;410.30;2355.20;;;;;;4883773;29;20102;-85
2023/01/18 10:26:08;;;;;;;7.20;3.05;;;410.50;2329.60;;;;;;4881182;29;20537;-84
2023/01/18 10:28:46;;;;;;;11.15;4.22;;;410.50;2355.20;;;;;;4891236;29;20044;-86
2023/01/18 10:31:37;;;;;;;7.95;3.53;;;410.50;2355.20;;;;;;4882571;29;20039;-84
2023/01/18 10:34:21;;;;;;;15.30;3.08;;;435.20;2355.20;;;;;;4882719;29;20036;-87
2023/01/18 10:36:51;;;;;;;12.68;5.05;;;435.20;2355.20;;;;;;4882959;29;20040;-86
2023/01/18 10:39:33;;;;;;;15.25;6.20;;;435.30;2355.20;;;;;;4883777;29;20481;-85
2023/01/18 10:42:03;;;;;;;10.88;5.70;;;435.30;2355.20;;;;;;4883507;29;20115;-84
2023/01/18 10:44:30;;;;;;;5.53;2.88;;;435.30;2329.60;;;;;;4900072;29;20040;-82
2023/01/18 10:47:00;;;;;;;12.77;4.50;;;435.20;2329.60;;;;;;4883454;29;20028;-82
2023/01/18 10:49:39;;;;;;;9.68;4.70;;;435.30;2329.60;;;;;;4894770;29;20029;-83
2023/01/18 10:52:25;;;;;;;11.80;5.15;;;435.30;2304.00;;;;;;4898633;29;20115;-85
2023/01/18 10:55:06;;;;;;;8.77;2.92;;;435.40;2304.00;;;;;;4898325;29;20033;-83
2023/01/18 10:57:42;;;;;;;11.35;3.92;;;435.40;2304.00;;;;;;4901056;29;20037;-84
2023/01/18 11:00:34;;;;;;;9.00;3.70;;;435.40;2278.40;;;;;;4893684;29;20477;-85
2023/01/18 11:03:02;;;;;;;12.35;4.90;;;435.40;2278.40;;;;;;4899210;29;20437;-82
2023/01/18 11:05:32;;;;;;;14.90;7.18;;;435.30;2278.40;;;;;;4886885;29;20032;-85
2023/01/18 11:08:24;;;;;;;10.35;5.32;;;435.30;2278.40;;;;;;4895809;29;20432;-86
2023/01/18 11:11:03;;;;;;;11.85;3.65;;;435.30;2278.40;;;;;;4904572;29;20036;-85
2023/01/18 11:13:38;;;;;;;8.98;3.78;;;435.30;2278.40;;;;;;4898605;29;20028;-86
2023/01/18 11:16:11;;;;;;;15.13;4.70;;;435.30;2278.40;;;;;;4915865;29;20064;-84
2023/01/18 11:18:37;;;;;;;;;;;435.30;2304.00;;;;;;4893053;29;20504;-87
2023/01/18 11:21:08;;;;;;;14.07;6.20;;;435.40;2278.40;;;;;;4892889;29;19911;-85
2023/01/18 11:23:35;;;;;;;8.75;3.17;;;435.40;2278.40;;;;;;4888794;29;20028;-87
2023/01/18 11:26:12;;;;;;;11.40;3.92;;;435.50;2278.40;;;;;;4893636;29;20167;-87
2023/01/18 11:29:04;;;;;;;12.38;4.32;;;435.50;2252.80;;;;;;4890315;29;20029;-85
2023/01/18 11:31:42;;;;;;;8.03;3.40;;;435.60;2252.80;;;;;;4892399;29;20024;-86
2023/01/18 11:34:39;;;;;;;9.93;3.58;;;435.60;2227.20;;;;;;4907590;29;20032;-84
2023/01/18 11:37:25;;;;;;;8.63;2.70;;;435.30;2227.20;;;;;;4885923;29;20036;-87
2023/01/18 11:39:51;;;;;;;7.78;2.65;;;410.50;2227.20;;;;;;4863980;29;20025;-78
2023/01/18 11:42:33;;;;;;;9.15;3.22;;;410.50;2227.20;;;;;;4879454;29;20050;-81
2023/01/18 11:45:33;;;;;;;6.65;3.38;;;410.50;2227.20;;;;;;4863889;29;20127;-82
2023/01/18 11:48:29;;;;;;;10.70;3.90;;;410.50;2227.20;;;;;;4864135;29;20086;-82
2023/01/18 11:51:30;;;;;;;6.25;3.30;;;435.20;2227.20;;;;;;4863844;29;20036;-82
2023/01/18 11:54:21;;;;;;;7.43;1.77;;;410.50;2252.80;;;;;;4885396;29;20480;-82
2023/01/18 11:56:49;;;;;;;7.57;4.32;;;410.20;2278.40;;;;;;4900859;29;20491;-80
2023/01/18 11:59:30;;;;;;;8.85;5.35;;;410.20;2278.40;;;;;;4900628;29;20060;-84
2023/01/18 12:02:04;;;;;;;7.13;3.30;;;410.00;2278.40;;;;;;4901114;29;20032;-84
2023/01/18 12:04:54;;;;;;;9.38;3.30;;;409.90;2252.80;;;;;;4897751;29;20052;-81
2023/01/18 12:07:20;;;;;;;6.15;3.38;;;;;;;;;;4896492;29;20112;-85
2023/01/18 12:09:54;;;;;;;9.07;2.90;;;409.60;2355.20;;;;;;4898341;29;20035;-78
2023/01/18 12:12:34;;;;;;;5.47;2.78;;;384.80;2329.60;;;;;;4880719;29;20745;-84
2023/01/18 12:15:09;;;;;;;8.25;4.80;;;384.60;2329.60;;;;;;4882153;29;20540;-82
2023/01/18 12:17:53;;;;;;;7.03;3.90;;;384.40;2329.60;;;;;;4881878;29;20623;-81
2023/01/18 12:20:33;;;;;;;6.30;3.90;;;384.40;2329.60;;;;;;4881872;29;20050;-84
2023/01/18 12:23:12;;;;;;;9.82;3.50;;;384.40;2329.60;;;;;;4882173;29;20044;-79
2023/01/18 12:26:00;;;;;;;7.63;4.50;;;384.20;2329.60;;;;;;4881963;29;20058;-84
2023/01/18 12:28:57;;;;;;;14.52;7.93;;;384.30;2329.60;;;;;;4881851;29;20142;-84
2023/01/18 12:31:47;;;;;;;6.38;3.78;;;384.90;2329.60;;;;;;4877738;29;20037;-81
2023/01/18 12:34:22;;;;;;;8.93;5.15;;;384.90;2329.60;;;;;;4885389;29;20089;-84
2023/01/18 12:37:31;;;;;;;8.20;4.60;;;384.90;2329.60;;;;;;4885616;29;20025;-82
2023/01/18 12:40:26;;;;;;;7.72;4.80;;;409.80;2355.20;;;;;;4885251;29;20520;-81
2023/01/18 12:43:06;;;;;;;6.30;3.78;;;409.90;2355.20;;;;;;4885352;29;20088;-81
2023/01/18 12:45:38;;;;;;;11.27;7.65;;;410.00;2355.20;;;;;;4884515;29;20484;-84
2023/01/18 12:48:39;;;;;;;6.85;3.50;;;410.20;2355.20;;;;;;4885060;29;20541;-84
2023/01/18 12:51:12;;;;;;;8.27;4.45;;;410.40;2355.20;;;;;;4885278;29;20485;-84
2023/01/18 12:53:48;;;;;;;8.52;4.43;;;410.20;2355.20;;;;;;4885241;29;20029;-85
2023/01/18 12:56:31;;;;;;;7.85;4.38;;;410.20;2355.20;;;;;;4885068;29;20039;-84
2023/01/18 12:59:03;;;;;;;8.68;4.03;;;410.20;2355.20;;;;;;4885320;29;20029;-85
2023/01/18 13:01:37;;;;;;;6.88;4.10;;;410.30;2355.20;;;;;;4885013;29;20033;-85
2023/01/18 13:04:19;;;;;;;6.07;3.30;;;410.50;2355.20;;;;;;4902147;29;20092;-84
2023/01/18 13:06:46;;;;;;;7.07;4.43;;;;;;;;;;4885224;29;20556;-84
2023/01/18 13:09:17;;;;;;;7.15;3.47;;;435.40;2355.20;;;;;;4884741;29;20035;-83
2023/01/18 13:11:43;;;;;;;6.63;3.45;;;435.30;2355.20;;;;;;4902135;29;20052;-83
2023/01/18 13:14:32;;;;;;;8.27;3.97;;;;;;;;;;4884849;29;20036;-83
2023/01/18 13:17:08;;;;;;;9.55;5.75;;;435.70;2355.20;;;;;;4884500;29;20115;-82
2023/01/18 13:20:15;;;;;;;6.70;3.78;;;435.60;2355.20;;;;;;4884462;29;20039;-83
2023/01/18 13:22:51;;;;;;;8.68;5.70;;;435.50;2355.20;;;;;;4878562;29;20404;-85
2023/01/18 13:25:38;;;;;;;7.88;4.03;;;435.60;2355.20;;;;;;4884618;29;20392;-83
2023/01/18 13:28:22;;;;;;;9.88;5.28;;;435.30;2355.20;;;;;;4883128;29;20029;-84
2023/01/18 13:30:53;;;;;;;10.50;7.00;;;435.40;2355.20;;;;;;4884164;29;20508;-80